createdAt,value
2023-03-05T00:00:41.231Z,5.18
2023-03-05T00:04:50.084Z,5.18
2023-03-05T00:08:57.170Z,5.18
2023-03-05T00:13:00.168Z,5.18
2023-03-05T00:17:03.658Z,5.18
2023-03-05T00:21:15.609Z,5.17
2023-03-05T00:25:20.603Z,5.20
2023-03-05T00:29:23.590Z,5.19
2023-03-05T00:33:27.238Z,5.21
2023-03-05T00:37:30.125Z,5.21
2023-03-05T00:41:35.729Z,5.23
2023-03-05T00:45:39.137Z,5.24
2023-03-05T00:49:42.361Z,5.24
2023-03-05T00:53:45.582Z,5.25
2023-03-05T00:57:50.682Z,5.25
2023-03-05T01:01:53.975Z,5.26
2023-03-05T01:05:57.514Z,5.25
2023-03-05T01:10:00.450Z,5.25
2023-03-05T01:14:05.090Z,5.26
2023-03-05T01:18:08.136Z,5.24
2023-03-05T01:22:12.159Z,5.24
2023-03-05T01:26:15.384Z,5.25
2023-03-05T01:30:20.714Z,5.25
2023-03-05T01:34:23.586Z,5.26
2023-03-05T01:38:27.234Z,5.25
2023-03-05T01:42:30.133Z,5.24
2023-03-05T01:46:36.825Z,5.24
2023-03-05T01:50:40.199Z,5.24
2023-03-05T01:54:46.315Z,5.23
2023-03-05T01:58:49.578Z,5.23
2023-03-05T02:02:55.123Z,5.23
2023-03-05T02:06:58.943Z,5.22
2023-03-05T02:11:02.200Z,5.23
2023-03-05T02:15:06.828Z,5.22
2023-03-05T02:19:13.107Z,5.23
2023-03-05T02:23:19.128Z,5.23
2023-03-05T02:27:27.291Z,5.23
2023-03-05T02:31:31.605Z,5.22
2023-03-05T02:35:35.276Z,5.21
2023-03-05T02:39:40.389Z,5.18
2023-03-05T02:43:43.936Z,5.12
2023-03-05T02:47:47.263Z,5.05
2023-03-05T02:51:51.878Z,4.98
2023-03-05T02:55:56.465Z,4.94
2023-03-05T02:59:59.741Z,4.89
2023-03-05T03:04:03.123Z,4.86
2023-03-05T03:08:06.824Z,4.83
2023-03-05T03:12:12.471Z,4.81
2023-03-05T03:16:16.545Z,4.77
2023-03-05T03:20:21.405Z,4.80
2023-03-05T03:24:24.426Z,4.79
2023-03-05T03:28:29.297Z,4.79
2023-03-05T03:32:33.087Z,4.79
2023-03-05T03:36:36.442Z,4.78
2023-03-05T03:40:39.750Z,4.78
2023-03-05T03:44:44.376Z,4.78
2023-03-05T03:48:51.462Z,4.79
2023-03-05T03:52:55.409Z,4.78
2023-03-05T03:56:58.479Z,4.80
2023-03-05T04:01:03.337Z,4.81
2023-03-05T04:05:07.397Z,4.78
2023-03-05T04:09:10.914Z,4.82
2023-03-05T04:13:13.995Z,4.81
2023-03-05T04:17:18.784Z,4.83
2023-03-05T04:21:21.720Z,4.83
2023-03-05T04:25:25.402Z,4.84
2023-03-05T04:29:28.492Z,4.86
2023-03-05T04:33:33.345Z,4.87
2023-03-05T04:37:36.431Z,4.88
2023-03-05T04:41:39.939Z,4.88
2023-03-05T04:45:44.776Z,4.91
2023-03-05T04:49:49.449Z,4.91
2023-03-05T04:53:52.469Z,4.91
2023-03-05T04:57:56.284Z,4.93
2023-03-05T05:01:59.502Z,4.94
2023-03-05T05:06:04.835Z,4.95
2023-03-05T05:10:09.335Z,4.95
2023-03-05T05:14:12.731Z,4.95
2023-03-05T05:18:15.675Z,4.96
2023-03-05T05:22:20.234Z,4.96
2023-03-05T05:26:23.277Z,4.98
2023-03-05T05:30:26.888Z,5.00
2023-03-05T05:34:29.793Z,5.01
2023-03-05T05:38:35.552Z,5.03
2023-03-05T05:42:39.171Z,5.03
2023-03-05T05:46:42.569Z,5.05
2023-03-05T05:51:08.234Z,5.07
2023-03-05T05:55:14.698Z,5.10
2023-03-05T05:59:17.534Z,5.09
2023-03-05T06:03:21.754Z,5.12
2023-03-05T06:07:24.684Z,5.14
2023-03-05T06:11:30.554Z,5.17
2023-03-05T06:15:33.518Z,5.21
2023-03-05T06:19:37.366Z,5.24
2023-03-05T06:23:40.667Z,5.25
2023-03-05T06:27:46.284Z,5.31
2023-03-05T06:31:50.752Z,5.34
2023-03-05T06:35:54.532Z,5.38
2023-03-05T06:39:57.741Z,5.42
2023-03-05T06:44:03.873Z,5.47
2023-03-05T06:48:07.198Z,5.49
2023-03-05T06:52:13.495Z,5.53
2023-03-05T06:56:16.926Z,5.56
2023-03-05T07:00:22.646Z,5.59
2023-03-05T07:04:25.984Z,5.61
2023-03-05T07:08:29.458Z,5.65
2023-03-05T07:12:33.881Z,5.67
2023-03-05T07:16:38.737Z,5.70
2023-03-05T07:20:41.941Z,5.71
2023-03-05T07:24:45.161Z,5.77
2023-03-05T07:28:48.468Z,5.79
2023-03-05T07:32:53.193Z,5.83
2023-03-05T07:36:56.275Z,5.87
2023-03-05T07:41:04.570Z,5.94
2023-03-05T07:45:08.625Z,5.98
2023-03-05T07:49:13.445Z,6.04
2023-03-05T07:53:17.108Z,6.09
2023-03-05T07:57:20.522Z,6.16
2023-03-05T08:01:23.825Z,6.24
2023-03-05T08:05:28.897Z,6.30
2023-03-05T08:09:32.041Z,6.38
2023-03-05T08:13:35.461Z,6.47
2023-03-05T08:17:38.912Z,6.54
2023-03-05T08:21:44.276Z,6.61
2023-03-05T08:25:47.734Z,6.63
2023-03-05T08:29:51.209Z,6.65
2023-03-05T08:33:56.663Z,6.66
2023-03-05T08:38:01.695Z,6.68
2023-03-05T08:42:06.928Z,6.71
2023-03-05T08:46:12.394Z,6.77
2023-03-05T08:50:15.307Z,6.83
2023-03-05T08:54:19.850Z,6.92
2023-03-05T08:58:22.740Z,7.01
2023-03-05T09:02:26.004Z,7.14
2023-03-05T09:06:29.475Z,7.25
2023-03-05T09:10:34.225Z,7.38
2023-03-05T09:14:37.121Z,7.50
2023-03-05T09:18:40.973Z,7.61
2023-03-05T09:22:43.954Z,7.68
2023-03-05T09:26:49.259Z,7.76
2023-03-05T09:30:52.192Z,7.83
2023-03-05T09:34:55.326Z,7.91
2023-03-05T09:38:58.843Z,8.02
2023-03-05T09:43:19.253Z,8.15
2023-03-05T09:47:45.789Z,8.24
2023-03-05T09:51:56.275Z,8.31
2023-03-05T09:56:03.352Z,8.37
2023-03-05T10:00:22.509Z,8.47
2023-03-05T10:04:30.190Z,8.59
2023-03-05T10:08:46.300Z,8.71
2023-03-05T10:12:53.495Z,8.82
2023-03-05T10:17:25.503Z,8.94
2023-03-05T10:21:32.860Z,9.06
2023-03-05T10:25:51.506Z,9.18
2023-03-05T10:30:06.577Z,9.31
2023-03-05T10:34:31.381Z,9.44
2023-03-05T10:39:12.495Z,9.52
2023-03-05T10:43:25.397Z,9.63
2023-03-05T10:47:31.045Z,9.76
2023-03-05T10:51:39.773Z,9.87
2023-03-05T10:55:43.029Z,9.95
2023-03-05T10:59:51.162Z,10.12
2023-03-05T11:03:59.314Z,10.26
2023-03-05T11:08:25.101Z,10.38
2023-03-05T11:12:29.697Z,10.52
2023-03-05T11:16:35.037Z,10.61
2023-03-05T11:20:40.006Z,10.70
2023-03-05T11:24:47.007Z,10.78
2023-03-05T11:29:00.746Z,10.89
2023-03-05T11:33:11.804Z,10.97
2023-03-05T11:37:25.724Z,10.98
2023-03-05T11:41:37.314Z,11.01
2023-03-05T11:45:42.242Z,11.04
2023-03-05T11:49:49.745Z,11.07
2023-03-05T11:53:57.981Z,11.06
2023-03-05T11:58:14.356Z,11.01
2023-03-05T12:02:21.304Z,10.98
2023-03-05T12:06:32.974Z,10.97
2023-03-05T12:10:36.042Z,10.93
2023-03-05T12:14:49.360Z,10.92
2023-03-05T12:19:03.004Z,10.87
2023-03-05T12:23:06.420Z,10.76
2023-03-05T12:27:14.952Z,10.68
2023-03-05T12:31:37.951Z,10.60
2023-03-05T12:35:43.971Z,10.51
2023-03-05T12:39:59.723Z,10.43
2023-03-05T12:44:23.861Z,10.36
2023-03-05T12:48:45.158Z,10.37
2023-03-05T12:52:48.132Z,10.37
2023-03-05T12:56:53.729Z,10.42
2023-03-05T13:01:03.759Z,10.49
2023-03-05T13:05:21.532Z,10.57
2023-03-05T13:09:27.922Z,10.62
2023-03-05T13:13:34.967Z,10.60
2023-03-05T13:17:41.284Z,10.50
2023-03-05T13:21:46.114Z,10.39
2023-03-05T13:26:04.794Z,10.26
2023-03-05T13:30:22.451Z,10.19
2023-03-05T13:34:37.412Z,10.14
2023-03-05T13:38:48.694Z,10.11
2023-03-05T13:42:53.682Z,10.10
2023-03-05T13:47:09.765Z,10.11
2023-03-05T13:51:14.773Z,10.11
2023-03-05T13:55:19.645Z,10.11
2023-03-05T13:59:24.493Z,10.10
2023-03-05T14:03:30.385Z,10.08
2023-03-05T14:07:40.006Z,10.03
2023-03-05T14:11:53.163Z,9.96
2023-03-05T14:16:07.402Z,9.87
2023-03-05T14:20:24.402Z,9.77
2023-03-05T14:24:31.522Z,9.65
2023-03-05T14:28:37.623Z,9.52
2023-03-05T14:32:42.641Z,9.39
2023-03-05T14:36:51.218Z,9.31
2023-03-05T14:40:54.253Z,9.23
2023-03-05T14:45:00.420Z,9.21
2023-03-05T14:49:04.002Z,9.16
2023-03-05T14:53:10.401Z,9.11
2023-03-05T14:57:17.986Z,9.04
2023-03-05T15:01:22.541Z,8.97
2023-03-05T15:05:26.317Z,8.91
2023-03-05T15:09:30.500Z,8.87
2023-03-05T15:13:35.192Z,8.81
2023-03-05T15:21:42.455Z,8.77
2023-03-05T15:25:45.733Z,8.74
2023-03-05T15:29:48.940Z,8.61
2023-03-05T15:33:51.830Z,8.73
2023-03-05T15:37:58.465Z,8.78
2023-03-05T15:42:01.658Z,8.77
2023-03-05T15:46:06.659Z,8.78
2023-03-05T15:50:11.493Z,8.77
2023-03-05T15:54:16.631Z,8.74
2023-03-05T15:58:20.035Z,8.72
2023-03-05T16:02:24.973Z,8.68
2023-03-05T16:06:28.208Z,8.65
2023-03-05T16:10:33.042Z,8.59
2023-03-05T16:14:36.269Z,8.52
2023-03-05T16:18:45.240Z,8.48
2023-03-05T16:22:49.389Z,8.40
2023-03-05T16:26:54.022Z,8.35
2023-03-05T16:30:59.666Z,8.27
2023-03-05T16:35:02.941Z,8.21
2023-03-05T16:39:06.427Z,8.13
2023-03-05T16:43:11.169Z,8.04
2023-03-05T16:47:14.346Z,7.89
2023-03-05T16:51:19.302Z,7.87
2023-03-05T16:55:23.078Z,7.80
2023-03-05T16:59:27.649Z,7.70
2023-03-05T17:03:31.177Z,7.69
2023-03-05T17:07:35.148Z,7.64
2023-03-05T17:11:40.937Z,7.56
2023-03-05T17:15:45.626Z,7.55
2023-03-05T17:19:49.531Z,7.51
2023-03-05T17:23:52.434Z,7.46
2023-03-05T17:27:56.061Z,7.42
2023-03-05T17:32:00.999Z,7.32
2023-03-05T17:36:05.313Z,7.32
2023-03-05T17:40:09.914Z,7.27
2023-03-05T17:44:13.328Z,7.24
2023-03-05T17:48:18.131Z,7.18
2023-03-05T17:52:21.803Z,7.17
2023-03-05T17:56:26.685Z,7.14
2023-03-05T18:00:31.789Z,7.12
2023-03-05T18:04:36.393Z,7.08
2023-03-05T18:08:39.682Z,7.05
2023-03-05T18:12:43.005Z,7.02
2023-03-05T18:16:48.428Z,6.99
2023-03-05T18:20:52.785Z,6.97
2023-03-05T18:24:56.387Z,6.93
2023-03-05T18:28:59.521Z,6.93
2023-03-05T18:33:03.027Z,6.93
2023-03-05T18:37:07.728Z,6.93
2023-03-05T18:41:11.145Z,6.97
2023-03-05T18:45:16.604Z,6.99
2023-03-05T18:49:20.094Z,6.93
2023-03-05T18:53:25.658Z,7.00
2023-03-05T18:57:28.818Z,7.00
2023-03-05T19:01:32.072Z,6.98
2023-03-05T19:05:36.247Z,7.00
2023-03-05T19:09:57.078Z,7.03
2023-03-05T19:14:01.200Z,6.99
2023-03-05T19:18:05.058Z,7.03
2023-03-05T19:22:08.886Z,7.01
2023-03-05T19:26:13.553Z,6.98
2023-03-05T19:30:19.061Z,6.95
2023-03-05T19:34:22.138Z,6.94
2023-03-05T19:38:25.389Z,6.88
2023-03-05T19:42:35.212Z,6.81
2023-03-05T19:46:40.499Z,6.81
2023-03-05T19:50:43.956Z,6.74
2023-03-05T19:54:50.016Z,6.71
2023-03-05T19:58:54.661Z,6.64
2023-03-05T20:02:59.202Z,6.65
2023-03-05T20:07:03.846Z,6.60
2023-03-05T20:11:07.910Z,6.53
2023-03-05T20:15:12.894Z,6.46
2023-03-05T20:19:18.700Z,6.52
2023-03-05T20:23:22.188Z,6.48
2023-03-05T20:27:25.379Z,6.45
2023-03-05T20:31:30.249Z,6.41
2023-03-05T20:35:34.739Z,6.38
2023-03-05T20:39:37.643Z,6.35
2023-03-05T20:43:45.400Z,6.31
2023-03-05T20:47:49.672Z,6.30
2023-03-05T20:51:53.168Z,6.25
2023-03-05T20:55:56.392Z,6.25
2023-03-05T21:00:00.282Z,6.23
2023-03-05T21:04:05.551Z,6.23
2023-03-05T21:08:08.853Z,6.21
2023-03-05T21:12:12.058Z,6.22
2023-03-05T21:16:18.114Z,6.23
2023-03-05T21:20:24.671Z,6.24
2023-03-05T21:25:16.636Z,6.23
2023-03-05T21:29:19.630Z,6.23
2023-03-05T21:33:25.239Z,6.22
2023-03-05T21:37:30.257Z,6.20
2023-03-05T21:41:34.028Z,6.19
2023-03-05T21:45:37.102Z,6.17
2023-03-05T21:49:41.103Z,6.14
2023-03-05T21:53:45.927Z,6.13
2023-03-05T21:57:49.056Z,6.09
2023-03-05T22:01:52.664Z,6.07
2023-03-05T22:05:56.442Z,6.05
2023-03-05T22:10:00.833Z,6.05
2023-03-05T22:14:04.292Z,6.04
2023-03-05T22:18:07.301Z,6.05
2023-03-05T22:22:10.566Z,6.05
2023-03-05T22:26:15.334Z,6.06
2023-03-05T22:30:18.702Z,6.05
2023-03-05T22:34:21.664Z,6.06
2023-03-05T22:38:26.288Z,6.05
2023-03-05T22:42:30.980Z,6.05
2023-03-05T22:46:34.624Z,6.03
2023-03-05T22:50:37.762Z,6.01
2023-03-05T22:54:41.216Z,6.01
2023-03-05T22:58:45.742Z,6.02
2023-03-05T23:02:49.632Z,5.99
2023-03-05T23:06:52.624Z,5.98
2023-03-05T23:10:55.859Z,5.95
2023-03-05T23:15:02.122Z,5.93
2023-03-05T23:19:06.606Z,5.91
2023-03-05T23:23:09.581Z,5.89
2023-03-05T23:27:16.664Z,5.87
2023-03-05T23:31:21.292Z,5.85
2023-03-05T23:35:27.190Z,5.84
2023-03-05T23:39:30.273Z,5.81
2023-03-05T23:43:33.550Z,5.79
2023-03-05T23:47:37.955Z,5.78
2023-03-05T23:51:41.639Z,5.75
2023-03-05T23:55:45.739Z,5.75
2023-03-05T23:59:48.988Z,5.73
